sensor_id;sensor_type;location;lat;lon;timestamp;pressure;altitude;pressure_sealevel;temperature;humidity
11643;BME280;5877;50.930;6.918;2023-01-31T00:05:18;101933.75;;;5.68;68.80
11643;BME280;5877;50.930;6.918;2023-01-31T00:10:59;101938.91;;;5.78;67.91
11643;BME280;5877;50.930;6.918;2023-01-31T00:16:11;101935.91;;;5.73;68.37
11643;BME280;5877;50.930;6.918;2023-01-31T00:21:13;101941.03;;;5.65;68.98
11643;BME280;5877;50.930;6.918;2023-01-31T00:31:09;101892.13;;;5.41;68.56
11643;BME280;5877;50.930;6.918;2023-01-31T00:36:07;101896.41;;;5.32;68.91
11643;BME280;5877;50.930;6.918;2023-01-31T00:40:59;101932.56;;;5.63;68.37
11643;BME280;5877;50.930;6.918;2023-01-31T00:45:51;101865.47;;;5.11;68.47
11643;BME280;5877;50.930;6.918;2023-01-31T00:50:43;101863.31;;;5.25;68.62
11643;BME280;5877;50.930;6.918;2023-01-31T00:55:35;101925.13;;;5.40;69.61
11643;BME280;5877;50.930;6.918;2023-01-31T01:00:27;101927.78;;;5.13;69.75
11643;BME280;5877;50.930;6.918;2023-01-31T01:05:19;101919.53;;;4.80;70.68
11643;BME280;5877;50.930;6.918;2023-01-31T01:10:12;101941.03;;;4.73;71.83
11643;BME280;5877;50.930;6.918;2023-01-31T01:15:04;101938.63;;;4.52;72.33
11643;BME280;5877;50.930;6.918;2023-01-31T01:19:57;101878.06;;;4.22;72.68
11643;BME280;5877;50.930;6.918;2023-01-31T01:24:49;101894.81;;;4.57;71.75
11643;BME280;5877;50.930;6.918;2023-01-31T01:29:41;101766.53;;;3.92;71.29
11643;BME280;5877;50.930;6.918;2023-01-31T01:34:33;101937.16;;;4.96;71.07
11643;BME280;5877;50.930;6.918;2023-01-31T01:39:26;101938.06;;;5.05;70.33
11643;BME280;5877;50.930;6.918;2023-01-31T01:49:37;101934.94;;;5.01;70.36
11643;BME280;5877;50.930;6.918;2023-01-31T01:55:06;101733.50;;;3.75;70.01
11643;BME280;5877;50.930;6.918;2023-01-31T02:00:14;101830.19;;;4.25;70.50
11643;BME280;5877;50.930;6.918;2023-01-31T02:05:12;101923.78;;;4.81;71.13
11643;BME280;5877;50.930;6.918;2023-01-31T02:11:11;101924.34;;;4.75;71.01
11643;BME280;5877;50.930;6.918;2023-01-31T02:15:36;101923.25;;;4.68;70.72
11643;BME280;5877;50.930;6.918;2023-01-31T02:37:01;101926.88;;;4.29;72.79
11643;BME280;5877;50.930;6.918;2023-01-31T02:42:05;101848.00;;;3.72;73.12
11643;BME280;5877;50.930;6.918;2023-01-31T02:47:18;101914.16;;;4.26;73.20
11643;BME280;5877;50.930;6.918;2023-01-31T02:57:37;101917.31;;;4.29;72.20
11643;BME280;5877;50.930;6.918;2023-01-31T03:02:29;101931.00;;;4.21;73.16
11643;BME280;5877;50.930;6.918;2023-01-31T03:07:26;101911.72;;;4.14;71.92
11643;BME280;5877;50.930;6.918;2023-01-31T03:17:58;101903.34;;;3.72;73.47
11643;BME280;5877;50.930;6.918;2023-01-31T03:22:57;101916.44;;;3.51;74.67
11643;BME280;5877;50.930;6.918;2023-01-31T03:27:54;101915.97;;;3.37;75.68
11643;BME280;5877;50.930;6.918;2023-01-31T03:33:00;101898.28;;;3.11;76.35
11643;BME280;5877;50.930;6.918;2023-01-31T03:37:58;101907.13;;;2.99;77.01
11643;BME280;5877;50.930;6.918;2023-01-31T03:43:01;101919.78;;;2.92;77.40
11643;BME280;5877;50.930;6.918;2023-01-31T03:47:59;101905.13;;;2.82;77.66
11643;BME280;5877;50.930;6.918;2023-01-31T03:53:28;101857.78;;;2.49;77.63
11643;BME280;5877;50.930;6.918;2023-01-31T03:58:31;101908.50;;;2.73;78.15
11643;BME280;5877;50.930;6.918;2023-01-31T04:03:30;101912.84;;;2.72;77.91
11643;BME280;5877;50.930;6.918;2023-01-31T04:08:23;101808.03;;;2.04;78.40
11643;BME280;5877;50.930;6.918;2023-01-31T04:13:23;101851.81;;;2.28;78.63
11643;BME280;5877;50.930;6.918;2023-01-31T04:18:14;101817.81;;;2.01;78.87
11643;BME280;5877;50.930;6.918;2023-01-31T04:23:06;101861.47;;;2.26;79.02
11643;BME280;5877;50.930;6.918;2023-01-31T04:27:57;101743.13;;;1.54;78.75
11643;BME280;5877;50.930;6.918;2023-01-31T04:32:50;101881.69;;;2.32;79.28
11643;BME280;5877;50.930;6.918;2023-01-31T04:37:42;101871.31;;;2.32;79.46
11643;BME280;5877;50.930;6.918;2023-01-31T04:42:34;101871.31;;;2.32;79.80
11643;BME280;5877;50.930;6.918;2023-01-31T04:47:25;101874.03;;;2.31;79.60
11643;BME280;5877;50.930;6.918;2023-01-31T04:52:17;101873.22;;;2.30;80.01
11643;BME280;5877;50.930;6.918;2023-01-31T04:57:10;101817.69;;;2.02;80.31
11643;BME280;5877;50.930;6.918;2023-01-31T05:02:01;101858.06;;;2.25;80.42
11643;BME280;5877;50.930;6.918;2023-01-31T05:06:53;101814.28;;;2.02;80.39
11643;BME280;5877;50.930;6.918;2023-01-31T05:11:44;101863.75;;;2.19;80.80
11643;BME280;5877;50.930;6.918;2023-01-31T05:16:37;101851.16;;;2.15;81.75
11643;BME280;5877;50.930;6.918;2023-01-31T05:21:29;101847.25;;;2.20;81.27
11643;BME280;5877;50.930;6.918;2023-01-31T05:26:20;101848.56;;;2.36;81.01
11643;BME280;5877;50.930;6.918;2023-01-31T05:31:12;101809.34;;;2.40;80.67
11643;BME280;5877;50.930;6.918;2023-01-31T05:36:04;101854.88;;;2.73;79.38
11643;BME280;5877;50.930;6.918;2023-01-31T05:40:56;101853.69;;;2.87;79.35
11643;BME280;5877;50.930;6.918;2023-01-31T05:45:49;101750.81;;;2.38;78.89
11643;BME280;5877;50.930;6.918;2023-01-31T05:50:40;101813.72;;;2.89;78.68
11643;BME280;5877;50.930;6.918;2023-01-31T05:55:32;101825.66;;;3.11;78.22
11643;BME280;5877;50.930;6.918;2023-01-31T06:00:24;101855.72;;;3.23;78.34
11643;BME280;5877;50.930;6.918;2023-01-31T06:05:15;101785.91;;;2.91;78.12
11643;BME280;5877;50.930;6.918;2023-01-31T06:10:10;101796.00;;;2.94;77.86
11643;BME280;5877;50.930;6.918;2023-01-31T06:15:03;101656.13;;;2.14;77.70
11643;BME280;5877;50.930;6.918;2023-01-31T06:19:54;101837.03;;;3.30;78.06
11643;BME280;5877;50.930;6.918;2023-01-31T06:24:46;101778.69;;;3.05;77.93
11643;BME280;5877;50.930;6.918;2023-01-31T06:29:38;101789.38;;;3.31;77.55
11643;BME280;5877;50.930;6.918;2023-01-31T06:34:29;101821.63;;;3.57;77.34
11643;BME280;5877;50.930;6.918;2023-01-31T06:39:22;101815.50;;;3.68;76.21
11643;BME280;5877;50.930;6.918;2023-01-31T06:44:13;101800.31;;;3.73;76.62
11643;BME280;5877;50.930;6.918;2023-01-31T06:49:06;101811.94;;;3.78;75.84
11643;BME280;5877;50.930;6.918;2023-01-31T06:53:59;101808.66;;;3.86;75.84
11643;BME280;5877;50.930;6.918;2023-01-31T06:58:51;101815.63;;;3.76;75.41
11643;BME280;5877;50.930;6.918;2023-01-31T07:03:43;101826.41;;;3.90;75.64
11643;BME280;5877;50.930;6.918;2023-01-31T07:08:36;101824.22;;;4.05;74.79
11643;BME280;5877;50.930;6.918;2023-01-31T07:13:28;101794.81;;;4.05;74.55
11643;BME280;5877;50.930;6.918;2023-01-31T07:18:20;101836.63;;;4.21;74.60
11643;BME280;5877;50.930;6.918;2023-01-31T07:23:12;101767.50;;;3.91;73.20
11643;BME280;5877;50.930;6.918;2023-01-31T07:28:04;101775.28;;;4.01;73.02
11643;BME280;5877;50.930;6.918;2023-01-31T07:32:56;101854.97;;;4.66;72.96
11643;BME280;5877;50.930;6.918;2023-01-31T07:37:50;101834.81;;;4.78;70.77
11643;BME280;5877;50.930;6.918;2023-01-31T07:42:42;101786.00;;;4.62;70.25
11643;BME280;5877;50.930;6.918;2023-01-31T07:47:34;101834.00;;;5.05;68.95
11643;BME280;5877;50.930;6.918;2023-01-31T07:52:26;101795.94;;;5.04;68.87
11643;BME280;5877;50.930;6.918;2023-01-31T07:57:19;101771.53;;;5.05;68.63
11643;BME280;5877;50.930;6.918;2023-01-31T08:02:13;101785.66;;;5.38;67.88
11643;BME280;5877;50.930;6.918;2023-01-31T08:07:26;101781.44;;;5.54;67.81
11643;BME280;5877;50.930;6.918;2023-01-31T08:12:19;101797.19;;;5.71;67.05
11643;BME280;5877;50.930;6.918;2023-01-31T08:17:11;101791.84;;;5.72;65.96
11643;BME280;5877;50.930;6.918;2023-01-31T08:22:03;101774.63;;;5.79;66.00
11643;BME280;5877;50.930;6.918;2023-01-31T08:26:56;101752.50;;;5.83;64.93
11643;BME280;5877;50.930;6.918;2023-01-31T08:31:47;101758.03;;;5.98;64.55
11643;BME280;5877;50.930;6.918;2023-01-31T08:36:43;101777.34;;;6.13;64.60
11643;BME280;5877;50.930;6.918;2023-01-31T08:41:36;101788.25;;;6.43;64.28
11643;BME280;5877;50.930;6.918;2023-01-31T08:46:34;101771.16;;;6.48;64.58
11643;BME280;5877;50.930;6.918;2023-01-31T08:51:27;101781.16;;;6.61;64.38
11643;BME280;5877;50.930;6.918;2023-01-31T08:56:20;101750.00;;;6.51;64.62
11643;BME280;5877;50.930;6.918;2023-01-31T09:01:14;101762.19;;;6.43;64.78
11643;BME280;5877;50.930;6.918;2023-01-31T09:06:10;101783.28;;;6.58;65.17
11643;BME280;5877;50.930;6.918;2023-01-31T09:11:03;101764.63;;;6.87;64.94
11643;BME280;5877;50.930;6.918;2023-01-31T09:16:00;101758.66;;;6.60;64.92
11643;BME280;5877;50.930;6.918;2023-01-31T09:20:52;101756.19;;;6.50;65.68
11643;BME280;5877;50.930;6.918;2023-01-31T09:25:53;101752.53;;;6.35;66.88
11643;BME280;5877;50.930;6.918;2023-01-31T09:30:45;101707.81;;;6.22;67.45
11643;BME280;5877;50.930;6.918;2023-01-31T09:35:37;101740.06;;;6.55;67.50
11643;BME280;5877;50.930;6.918;2023-01-31T09:40:31;101753.47;;;6.68;66.83
11643;BME280;5877;50.930;6.918;2023-01-31T09:45:29;101747.66;;;6.82;66.68
11643;BME280;5877;50.930;6.918;2023-01-31T09:50:32;101717.94;;;6.75;65.82
11643;BME280;5877;50.930;6.918;2023-01-31T09:56:29;101724.50;;;6.88;66.59
11643;BME280;5877;50.930;6.918;2023-01-31T10:06:17;101720.63;;;7.08;66.72
11643;BME280;5877;50.930;6.918;2023-01-31T10:11:05;101616.47;;;6.40;68.07
11643;BME280;5877;50.930;6.918;2023-01-31T10:16:13;101597.06;;;6.34;67.76
11643;BME280;5877;50.930;6.918;2023-01-31T10:21:12;101614.22;;;6.61;67.58
11643;BME280;5877;50.930;6.918;2023-01-31T10:26:09;101700.06;;;7.13;67.12
11643;BME280;5877;50.930;6.918;2023-01-31T10:32:11;101694.38;;;7.42;66.04
11643;BME280;5877;50.930;6.918;2023-01-31T10:36:52;101585.06;;;7.06;64.76
11643;BME280;5877;50.930;6.918;2023-01-31T10:46:47;101673.25;;;7.76;66.63
11643;BME280;5877;50.930;6.918;2023-01-31T10:51:48;101668.69;;;7.70;66.34
11643;BME280;5877;50.930;6.918;2023-01-31T10:56:46;101641.28;;;7.58;65.44
11643;BME280;5877;50.930;6.918;2023-01-31T11:01:38;101567.88;;;7.28;65.19
11643;BME280;5877;50.930;6.918;2023-01-31T11:06:30;101633.34;;;7.90;64.79
11643;BME280;5877;50.930;6.918;2023-01-31T11:11:24;101562.25;;;7.64;63.89
11643;BME280;5877;50.930;6.918;2023-01-31T11:16:16;101532.66;;;7.71;63.00
11643;BME280;5877;50.930;6.918;2023-01-31T11:21:07;101490.28;;;7.53;63.06
11643;BME280;5877;50.930;6.918;2023-01-31T11:26:00;101584.09;;;8.41;62.89
11643;BME280;5877;50.930;6.918;2023-01-31T11:30:52;101484.41;;;8.05;61.78
11643;BME280;5877;50.930;6.918;2023-01-31T11:35:50;101569.50;;;8.69;61.42
11643;BME280;5877;50.930;6.918;2023-01-31T11:40:42;101412.16;;;7.66;61.09
11643;BME280;5877;50.930;6.918;2023-01-31T11:45:37;101559.88;;;8.85;60.52
11643;BME280;5877;50.930;6.918;2023-01-31T11:50:36;101531.19;;;8.91;60.55
11643;BME280;5877;50.930;6.918;2023-01-31T11:55:36;101509.88;;;8.94;60.28
11643;BME280;5877;50.930;6.918;2023-01-31T12:00:31;101544.16;;;9.37;59.96
11643;BME280;5877;50.930;6.918;2023-01-31T12:15:25;101541.41;;;9.01;61.83
11643;BME280;5877;50.930;6.918;2023-01-31T12:20:42;101547.25;;;8.88;62.14
11643;BME280;5877;50.930;6.918;2023-01-31T12:30:43;101523.81;;;9.24;61.88
11643;BME280;5877;50.930;6.918;2023-01-31T12:36:03;101512.81;;;9.14;62.52
11643;BME280;5877;50.930;6.918;2023-01-31T12:46:07;101533.09;;;8.97;63.70
11643;BME280;5877;50.930;6.918;2023-01-31T12:51:17;101512.34;;;8.96;64.28
11643;BME280;5877;50.930;6.918;2023-01-31T12:56:25;101513.97;;;8.97;64.46
11643;BME280;5877;50.930;6.918;2023-01-31T13:11:26;101412.88;;;8.21;65.59
11643;BME280;5877;50.930;6.918;2023-01-31T13:16:42;101516.69;;;8.66;65.78
11643;BME280;5877;50.930;6.918;2023-01-31T13:21:39;101510.25;;;8.54;66.11
11643;BME280;5877;50.930;6.918;2023-01-31T13:26:57;101507.28;;;8.57;66.94
11643;BME280;5877;50.930;6.918;2023-01-31T13:32:00;101518.16;;;8.45;67.05
11643;BME280;5877;50.930;6.918;2023-01-31T13:37:00;101512.81;;;8.39;66.74
11643;BME280;5877;50.930;6.918;2023-01-31T13:41:53;101514.53;;;8.24;67.88
11643;BME280;5877;50.930;6.918;2023-01-31T13:46:57;101488.72;;;7.98;68.49
11643;BME280;5877;50.930;6.918;2023-01-31T13:56:51;101514.69;;;7.99;70.65
11643;BME280;5877;50.930;6.918;2023-01-31T14:01:48;101393.28;;;7.25;72.22
11643;BME280;5877;50.930;6.918;2023-01-31T14:11:59;101506.88;;;7.91;73.85
11643;BME280;5877;50.930;6.918;2023-01-31T14:16:51;101426.38;;;7.33;74.64
11643;BME280;5877;50.930;6.918;2023-01-31T14:27:02;101513.88;;;7.68;76.05
11643;BME280;5877;50.930;6.918;2023-01-31T14:32:15;101492.50;;;7.64;76.87
11643;BME280;5877;50.930;6.918;2023-01-31T14:37:34;101443.56;;;7.19;77.38
11643;BME280;5877;50.930;6.918;2023-01-31T14:48:18;101510.34;;;7.53;76.63
11643;BME280;5877;50.930;6.918;2023-01-31T14:53:18;101496.88;;;7.72;76.06
11643;BME280;5877;50.930;6.918;2023-01-31T14:58:20;101503.09;;;7.71;76.31
11643;BME280;5877;50.930;6.918;2023-01-31T15:03:14;101501.47;;;7.70;76.37
11643;BME280;5877;50.930;6.918;2023-01-31T15:18:24;101369.72;;;6.55;78.18
11643;BME280;5877;50.930;6.918;2023-01-31T15:23:21;101520.88;;;7.36;78.41
11643;BME280;5877;50.930;6.918;2023-01-31T15:28:20;101451.50;;;6.87;78.72
11643;BME280;5877;50.930;6.918;2023-01-31T15:38:28;101508.22;;;7.01;78.78
11643;BME280;5877;50.930;6.918;2023-01-31T15:43:23;101430.34;;;6.49;80.68
11643;BME280;5877;50.930;6.918;2023-01-31T15:48:17;101497.81;;;6.76;82.43
11643;BME280;5877;50.930;6.918;2023-01-31T15:53:15;101517.38;;;6.72;83.08
11643;BME280;5877;50.930;6.918;2023-01-31T15:58:18;101510.06;;;6.68;83.45
11643;BME280;5877;50.930;6.918;2023-01-31T16:03:26;101470.13;;;6.43;83.22
11643;BME280;5877;50.930;6.918;2023-01-31T16:13:22;101559.13;;;6.89;84.10
11643;BME280;5877;50.930;6.918;2023-01-31T16:18:14;101540.22;;;6.70;83.91
11643;BME280;5877;50.930;6.918;2023-01-31T16:23:30;101563.03;;;6.93;83.78
11643;BME280;5877;50.930;6.918;2023-01-31T16:28:23;101564.81;;;7.00;83.74
11643;BME280;5877;50.930;6.918;2023-01-31T16:33:22;101564.50;;;7.03;83.14
11643;BME280;5877;50.930;6.918;2023-01-31T16:38:18;101562.53;;;6.97;82.84
11643;BME280;5877;50.930;6.918;2023-01-31T16:43:21;101518.38;;;6.71;82.44
11643;BME280;5877;50.930;6.918;2023-01-31T16:48:28;101575.75;;;7.04;82.89
11643;BME280;5877;50.930;6.918;2023-01-31T16:53:24;101586.53;;;7.09;82.86
11643;BME280;5877;50.930;6.918;2023-01-31T17:03:33;101540.22;;;6.78;82.84
11643;BME280;5877;50.930;6.918;2023-01-31T17:08:26;101465.38;;;6.30;82.38
11643;BME280;5877;50.930;6.918;2023-01-31T17:13:21;101602.50;;;7.06;82.59
11643;BME280;5877;50.930;6.918;2023-01-31T17:18:14;101554.22;;;6.86;82.45
11643;BME280;5877;50.930;6.918;2023-01-31T17:23:09;101604.63;;;7.27;82.02
11643;BME280;5877;50.930;6.918;2023-01-31T17:28:02;101610.00;;;7.17;81.88
11643;BME280;5877;50.930;6.918;2023-01-31T17:32:55;101606.91;;;7.13;82.03
11643;BME280;5877;50.930;6.918;2023-01-31T17:37:47;101488.19;;;6.28;81.33
11643;BME280;5877;50.930;6.918;2023-01-31T17:42:39;101615.06;;;7.10;81.49
11643;BME280;5877;50.930;6.918;2023-01-31T17:47:31;101612.94;;;7.06;81.65
11643;BME280;5877;50.930;6.918;2023-01-31T17:52:24;101597.28;;;6.98;81.29
11643;BME280;5877;50.930;6.918;2023-01-31T17:57:16;101557.34;;;6.81;81.15
11643;BME280;5877;50.930;6.918;2023-01-31T18:02:09;101598.28;;;6.97;81.24
11643;BME280;5877;50.930;6.918;2023-01-31T18:07:01;101426.13;;;5.99;80.96
11643;BME280;5877;50.930;6.918;2023-01-31T18:11:53;101582.59;;;7.05;81.08
11643;BME280;5877;50.930;6.918;2023-01-31T18:16:45;101550.31;;;6.90;81.42
11643;BME280;5877;50.930;6.918;2023-01-31T18:21:37;101513.97;;;6.64;81.54
11643;BME280;5877;50.930;6.918;2023-01-31T18:26:37;101576.88;;;7.09;81.19
11643;BME280;5877;50.930;6.918;2023-01-31T18:31:29;101569.88;;;7.02;81.41
11643;BME280;5877;50.930;6.918;2023-01-31T18:36:21;101426.28;;;6.14;82.15
11643;BME280;5877;50.930;6.918;2023-01-31T18:41:14;101581.47;;;6.99;82.02
11643;BME280;5877;50.930;6.918;2023-01-31T18:46:06;101566.47;;;7.01;81.99
11643;BME280;5877;50.930;6.918;2023-01-31T18:51:02;101559.78;;;6.99;81.88
11643;BME280;5877;50.930;6.918;2023-01-31T18:55:59;101570.38;;;6.97;81.54
11643;BME280;5877;50.930;6.918;2023-01-31T19:00:51;101558.13;;;6.98;80.87
11643;BME280;5877;50.930;6.918;2023-01-31T19:05:42;101563.03;;;7.01;80.68
11643;BME280;5877;50.930;6.918;2023-01-31T19:10:35;101566.63;;;6.92;79.93
11643;BME280;5877;50.930;6.918;2023-01-31T19:15:26;101478.91;;;6.34;79.15
11643;BME280;5877;50.930;6.918;2023-01-31T19:20:19;101481.84;;;6.31;78.76
11643;BME280;5877;50.930;6.918;2023-01-31T19:25:10;101565.00;;;6.91;78.84
11643;BME280;5877;50.930;6.918;2023-01-31T19:30:02;101574.78;;;6.89;78.71
11643;BME280;5877;50.930;6.918;2023-01-31T19:34:54;101573.31;;;6.78;78.64
11643;BME280;5877;50.930;6.918;2023-01-31T19:39:46;101585.53;;;6.77;78.20
11643;BME280;5877;50.930;6.918;2023-01-31T19:44:37;101581.63;;;6.81;76.48
11643;BME280;5877;50.930;6.918;2023-01-31T19:49:29;101573.31;;;6.78;76.67
11643;BME280;5877;50.930;6.918;2023-01-31T19:54:20;101577.38;;;6.48;77.02
11643;BME280;5877;50.930;6.918;2023-01-31T19:59:13;101579.25;;;6.13;77.70
11643;BME280;5877;50.930;6.918;2023-01-31T20:04:05;101535.19;;;5.52;79.27
11643;BME280;5877;50.930;6.918;2023-01-31T20:08:59;101583.50;;;5.80;79.88
11643;BME280;5877;50.930;6.918;2023-01-31T20:13:52;101605.63;;;6.10;79.75
11643;BME280;5877;50.930;6.918;2023-01-31T20:18:44;101574.22;;;6.20;80.23
11643;BME280;5877;50.930;6.918;2023-01-31T20:23:36;101600.69;;;6.49;80.12
11643;BME280;5877;50.930;6.918;2023-01-31T20:28:27;101528.59;;;6.16;80.36
11643;BME280;5877;50.930;6.918;2023-01-31T20:33:19;101603.81;;;6.77;81.08
11643;BME280;5877;50.930;6.918;2023-01-31T20:38:11;101610.34;;;6.90;80.14
11643;BME280;5877;50.930;6.918;2023-01-31T20:43:04;101564.34;;;6.72;79.72
11643;BME280;5877;50.930;6.918;2023-01-31T20:47:57;101513.13;;;6.39;78.00
11643;BME280;5877;50.930;6.918;2023-01-31T20:52:49;101597.44;;;6.88;75.65
11643;BME280;5877;50.930;6.918;2023-01-31T20:57:41;101596.31;;;6.74;74.38
11643;BME280;5877;50.930;6.918;2023-01-31T21:02:33;101441.75;;;5.49;74.92
11643;BME280;5877;50.930;6.918;2023-01-31T21:07:25;101609.13;;;6.43;74.74
11643;BME280;5877;50.930;6.918;2023-01-31T21:12:17;101610.59;;;6.38;74.83
11643;BME280;5877;50.930;6.918;2023-01-31T21:17:08;101598.38;;;6.38;75.86
11643;BME280;5877;50.930;6.918;2023-01-31T21:22:00;101584.00;;;6.26;75.95
11643;BME280;5877;50.930;6.918;2023-01-31T21:26:52;101585.81;;;6.34;77.26
11643;BME280;5877;50.930;6.918;2023-01-31T21:31:44;101500.03;;;5.98;77.85
11643;BME280;5877;50.930;6.918;2023-01-31T21:36:36;101567.75;;;6.65;79.03
11643;BME280;5877;50.930;6.918;2023-01-31T21:41:28;101501.06;;;6.13;80.40
11643;BME280;5877;50.930;6.918;2023-01-31T21:46:38;101550.63;;;6.46;81.52
11643;BME280;5877;50.930;6.918;2023-01-31T21:51:30;101480.19;;;5.97;81.23
11643;BME280;5877;50.930;6.918;2023-01-31T21:56:25;101537.25;;;6.33;81.71
11643;BME280;5877;50.930;6.918;2023-01-31T22:01:20;101563.69;;;6.54;81.92
11643;BME280;5877;50.930;6.918;2023-01-31T22:06:12;101566.78;;;6.58;81.26
11643;BME280;5877;50.930;6.918;2023-01-31T22:11:07;101514.09;;;6.22;81.70
11643;BME280;5877;50.930;6.918;2023-01-31T22:16:03;101554.38;;;6.51;82.13
11643;BME280;5877;50.930;6.918;2023-01-31T22:26:01;101529.13;;;6.44;81.66
11643;BME280;5877;50.930;6.918;2023-01-31T22:30:57;101534.66;;;6.49;82.02
11643;BME280;5877;50.930;6.918;2023-01-31T22:35:49;101530.75;;;6.53;81.89
11643;BME280;5877;50.930;6.918;2023-01-31T22:40:41;101454.28;;;6.04;81.04
11643;BME280;5877;50.930;6.918;2023-01-31T22:45:35;101498.28;;;6.23;81.67
11643;BME280;5877;50.930;6.918;2023-01-31T22:50:26;101526.34;;;6.54;81.55
11643;BME280;5877;50.930;6.918;2023-01-31T22:55:18;101518.38;;;6.63;80.69
11643;BME280;5877;50.930;6.918;2023-01-31T23:00:10;101476.97;;;6.44;80.90
11643;BME280;5877;50.930;6.918;2023-01-31T23:05:02;101454.47;;;6.35;80.34
11643;BME280;5877;50.930;6.918;2023-01-31T23:09:53;101471.91;;;6.59;79.71
11643;BME280;5877;50.930;6.918;2023-01-31T23:14:45;101512.00;;;6.90;79.71
11643;BME280;5877;50.930;6.918;2023-01-31T23:19:37;101515.41;;;6.91;79.47
11643;BME280;5877;50.930;6.918;2023-01-31T23:24:28;101489.97;;;6.84;78.78
11643;BME280;5877;50.930;6.918;2023-01-31T23:29:21;101469.59;;;6.80;78.85
11643;BME280;5877;50.930;6.918;2023-01-31T23:34:13;101458.84;;;6.83;77.91
11643;BME280;5877;50.930;6.918;2023-01-31T23:39:04;101420.56;;;6.51;78.37
11643;BME280;5877;50.930;6.918;2023-01-31T23:43:57;101455.09;;;6.69;77.37
11643;BME280;5877;50.930;6.918;2023-01-31T23:48:49;101513.75;;;7.06;77.64
11643;BME280;5877;50.930;6.918;2023-01-31T23:53:40;101505.59;;;7.01;77.29
11643;BME280;5877;50.930;6.918;2023-01-31T23:58:32;101457.56;;;6.55;77.60
